createdAt,value
2023-04-23T00:01:14.497Z,6.40
2023-04-23T00:21:46.082Z,6.10
2023-04-23T00:41:47.070Z,6.00
2023-04-23T01:17:28.023Z,5.60
2023-04-23T01:42:44.470Z,5.60
2023-04-23T02:13:31.099Z,5.30
2023-04-23T02:17:45.696Z,5.40
2023-04-23T02:43:29.498Z,5.30
2023-04-23T03:18:33.363Z,4.90
2023-04-23T04:19:24.103Z,5.90
2023-04-23T04:44:46.740Z,7.80
2023-04-23T05:05:30.682Z,9.20
2023-04-23T05:36:09.320Z,10.70
2023-04-23T06:11:37.166Z,12.50
2023-04-23T06:36:53.686Z,13.80
2023-04-23T07:06:46.666Z,15.50
2023-04-23T07:42:53.089Z,17.50
2023-04-23T07:47:17.402Z,17.70
2023-04-23T08:17:51.687Z,18.70
2023-04-23T08:43:45.187Z,19.00
2023-04-23T09:29:19.706Z,19.50
2023-04-23T09:59:47.098Z,19.50
2023-04-23T10:34:37.910Z,19.50
2023-04-23T11:15:49.768Z,20.20
2023-04-23T11:40:40.503Z,20.20
2023-04-23T12:21:03.461Z,20.40
2023-04-23T12:42:02.637Z,21.10
2023-04-23T13:07:05.272Z,22.30
2023-04-23T13:37:44.759Z,22.60
2023-04-23T13:57:47.780Z,23.40
2023-04-23T14:23:20.630Z,26.00
2023-04-23T15:28:49.170Z,28.70
2023-04-23T15:54:37.770Z,24.50
2023-04-23T16:19:52.376Z,21.60
2023-04-23T17:00:32.290Z,19.90
2023-04-23T17:30:50.396Z,18.70
2023-04-23T17:50:47.116Z,17.70
2023-04-23T18:31:07.538Z,16.10
2023-04-23T18:51:52.307Z,16.20
2023-04-23T19:16:44.381Z,15.00
2023-04-23T19:47:09.233Z,13.80
2023-04-23T20:12:32.929Z,14.20
2023-04-23T20:33:03.604Z,14.40
2023-04-23T21:29:00.921Z,12.60
2023-04-23T21:49:24.475Z,12.40
2023-04-23T22:19:53.363Z,11.50
2023-04-23T22:49:46.015Z,10.10
2023-04-23T23:15:38.775Z,10.00
2023-04-23T23:45:57.764Z,9.90
